TAP91SR LPPT-LPMA
Flight info
| Callsign | TAP91SR |
|---|---|
| Flight time | 1h 36m |
| Altitude | 35000 |
| Route | ULVOT DCT GALPA DCT RAKUN |
| Aircraft | A320/M-SDE3FGHIRWY/LB1 |
Departure
| Time | 2026-05-07 10:10 |
|---|---|
| Airport | Lisbon Humberto Delgado Airport (LPPT) |
Arrival
| Time | 2026-05-07 11:46 |
|---|---|
| Airport | Cristiano Ronaldo International Airport (LPMA) |
| Time | Latitude | Longitude | Altitude | Speed | Heading |
|---|---|---|---|---|---|
| 2026-05-07 09:52 | 38.76784 | -9.13682 | 354 ft | 0 kts | 78° |
| 2026-05-07 10:02 | 38.76779 | -9.13711 | 349 ft | 4 kts | 78° |
| 2026-05-07 10:02 | 38.76774 | -9.13744 | 356 ft | 4 kts | 78° |
| 2026-05-07 10:02 | 38.76769 | -9.13778 | 356 ft | 4 kts | 86° |
| 2026-05-07 10:02 | 38.76772 | -9.13808 | 356 ft | 4 kts | 138° |
| 2026-05-07 10:03 | 38.76788 | -9.13816 | 356 ft | 4 kts | 168° |
| 2026-05-07 10:03 | 38.76799 | -9.13819 | 351 ft | 0 kts | 168° |
| 2026-05-07 10:06 | 38.76789 | -9.13817 | 355 ft | 5 kts | 168° |
| 2026-05-07 10:06 | 38.76733 | -9.13802 | 345 ft | 12 kts | 168° |
| 2026-05-07 10:06 | 38.76646 | -9.13778 | 347 ft | 11 kts | 168° |
| 2026-05-07 10:07 | 38.76602 | -9.13818 | 350 ft | 7 kts | 249° |
| 2026-05-07 10:07 | 38.76589 | -9.13887 | 345 ft | 10 kts | 258° |
| 2026-05-07 10:07 | 38.76571 | -9.13983 | 353 ft | 13 kts | 250° |
| 2026-05-07 10:07 | 38.76512 | -9.14081 | 354 ft | 15 kts | 232° |
| 2026-05-07 10:08 | 38.76509 | -9.14219 | 343 ft | 19 kts | 294° |
| 2026-05-07 10:08 | 38.76566 | -9.14389 | 335 ft | 11 kts | 293° |
| 2026-05-07 10:08 | 38.76621 | -9.14399 | 334 ft | 9 kts | 19° |
| 2026-05-07 10:08 | 38.76633 | -9.14393 | 336 ft | 0 kts | 22° |
| 2026-05-07 10:09 | 38.76684 | -9.14366 | 335 ft | 36 kts | 22° |
| 2026-05-07 10:09 | 38.77135 | -9.14130 | 360 ft | 101 kts | 22° |
| 2026-05-07 10:09 | 38.77949 | -9.13696 | 368 ft | 151 kts | 23° |
| 2026-05-07 10:09 | 38.79015 | -9.13113 | 648 ft | 169 kts | 21° |
| 2026-05-07 10:10 | 38.80104 | -9.12534 | 1288 ft | 171 kts | 19° |
| 2026-05-07 10:10 | 38.81213 | -9.11961 | 1854 ft | 178 kts | 18° |
| 2026-05-07 10:10 | 38.82388 | -9.11235 | 2227 ft | 198 kts | 27° |
| 2026-05-07 10:10 | 38.83629 | -9.10276 | 2602 ft | 219 kts | 30° |
| 2026-05-07 10:11 | 38.84996 | -9.09188 | 2983 ft | 242 kts | 31° |
| 2026-05-07 10:11 | 38.86473 | -9.08011 | 3565 ft | 256 kts | 31° |
| 2026-05-07 10:11 | 38.87862 | -9.06547 | 4325 ft | 264 kts | 54° |
| 2026-05-07 10:11 | 38.88485 | -9.04359 | 5089 ft | 271 kts | 88° |
| 2026-05-07 10:12 | 38.88056 | -9.02036 | 5909 ft | 272 kts | 119° |
| 2026-05-07 10:12 | 38.87123 | -8.99927 | 6804 ft | 271 kts | 123° |
| 2026-05-07 10:12 | 38.85878 | -8.98121 | 7576 ft | 272 kts | 146° |
| 2026-05-07 10:12 | 38.84184 | -8.97078 | 8358 ft | 272 kts | 168° |
| 2026-05-07 10:13 | 38.82284 | -8.96961 | 9052 ft | 277 kts | 191° |
| 2026-05-07 10:13 | 38.80454 | -8.97749 | 9799 ft | 281 kts | 203° |
| 2026-05-07 10:13 | 38.78635 | -8.98735 | 10341 ft | 292 kts | 204° |
| 2026-05-07 10:13 | 38.76686 | -8.99793 | 10539 ft | 315 kts | 204° |
| 2026-05-07 10:14 | 38.74594 | -9.00926 | 10700 ft | 337 kts | 204° |
| 2026-05-07 10:14 | 38.72393 | -9.02112 | 11186 ft | 347 kts | 203° |
| 2026-05-07 10:14 | 38.70148 | -9.03314 | 11836 ft | 352 kts | 203° |
| 2026-05-07 10:14 | 38.67879 | -9.04527 | 12505 ft | 355 kts | 204° |
| 2026-05-07 10:15 | 38.65583 | -9.05753 | 13153 ft | 360 kts | 204° |
| 2026-05-07 10:15 | 38.63257 | -9.06994 | 13776 ft | 365 kts | 204° |
| 2026-05-07 10:15 | 38.60901 | -9.08251 | 14343 ft | 369 kts | 204° |
| 2026-05-07 10:15 | 38.58520 | -9.09518 | 14903 ft | 373 kts | 204° |
| 2026-05-07 10:16 | 38.56112 | -9.10799 | 15447 ft | 377 kts | 205° |
| 2026-05-07 10:16 | 38.53676 | -9.12095 | 16011 ft | 381 kts | 205° |
| 2026-05-07 10:16 | 38.51221 | -9.13405 | 16572 ft | 384 kts | 205° |
| 2026-05-07 10:16 | 38.48741 | -9.14728 | 17126 ft | 388 kts | 205° |
| 2026-05-07 10:17 | 38.46240 | -9.16062 | 17693 ft | 392 kts | 206° |
| 2026-05-07 10:17 | 38.43715 | -9.17411 | 18248 ft | 395 kts | 207° |
| 2026-05-07 10:17 | 38.41300 | -9.19077 | 18725 ft | 394 kts | 217° |
| 2026-05-07 10:17 | 38.39100 | -9.21166 | 19202 ft | 396 kts | 221° |
| 2026-05-07 10:18 | 38.36909 | -9.23315 | 19699 ft | 399 kts | 221° |
| 2026-05-07 10:18 | 38.34698 | -9.25476 | 20198 ft | 402 kts | 221° |
| 2026-05-07 10:18 | 38.32473 | -9.27646 | 20675 ft | 405 kts | 221° |
| 2026-05-07 10:18 | 38.30228 | -9.29833 | 21140 ft | 408 kts | 222° |
| 2026-05-07 10:19 | 38.27968 | -9.32031 | 21573 ft | 410 kts | 222° |
| 2026-05-07 10:19 | 38.25696 | -9.34239 | 22064 ft | 412 kts | 222° |
| 2026-05-07 10:19 | 38.23414 | -9.36454 | 22509 ft | 414 kts | 222° |
| 2026-05-07 10:19 | 38.21141 | -9.38656 | 22930 ft | 417 kts | 222° |
| 2026-05-07 10:20 | 38.18829 | -9.40901 | 23347 ft | 420 kts | 223° |
| 2026-05-07 10:20 | 38.16500 | -9.43163 | 23721 ft | 422 kts | 223° |
| 2026-05-07 10:20 | 38.14130 | -9.45459 | 24070 ft | 424 kts | 223° |
| 2026-05-07 10:20 | 38.11776 | -9.47733 | 24438 ft | 425 kts | 222° |
| 2026-05-07 10:21 | 38.09453 | -9.49972 | 24819 ft | 425 kts | 222° |
| 2026-05-07 10:21 | 38.07096 | -9.52239 | 25169 ft | 426 kts | 222° |
| 2026-05-07 10:21 | 38.04728 | -9.54518 | 25505 ft | 428 kts | 223° |
| 2026-05-07 10:21 | 38.02354 | -9.56803 | 25844 ft | 429 kts | 223° |
| 2026-05-07 10:22 | 37.99977 | -9.59094 | 26158 ft | 430 kts | 223° |
| 2026-05-07 10:22 | 37.97627 | -9.61447 | 26489 ft | 430 kts | 225° |
| 2026-05-07 10:22 | 37.95322 | -9.63877 | 26799 ft | 431 kts | 226° |
| 2026-05-07 10:22 | 37.93050 | -9.66349 | 27105 ft | 432 kts | 226° |
| 2026-05-07 10:23 | 37.90779 | -9.68843 | 27397 ft | 433 kts | 226° |
| 2026-05-07 10:23 | 37.88493 | -9.71345 | 27687 ft | 435 kts | 226° |
| 2026-05-07 10:23 | 37.86191 | -9.73835 | 27976 ft | 436 kts | 226° |
| 2026-05-07 10:23 | 37.83870 | -9.76317 | 28246 ft | 438 kts | 226° |
| 2026-05-07 10:24 | 37.81535 | -9.78797 | 28503 ft | 439 kts | 226° |
| 2026-05-07 10:24 | 37.79198 | -9.81266 | 28964 ft | 435 kts | 226° |
| 2026-05-07 10:24 | 37.76882 | -9.83706 | 29422 ft | 432 kts | 226° |
| 2026-05-07 10:24 | 37.74583 | -9.86129 | 29902 ft | 428 kts | 226° |
| 2026-05-07 10:25 | 37.72306 | -9.88537 | 30289 ft | 426 kts | 226° |
| 2026-05-07 10:25 | 37.70038 | -9.90936 | 30644 ft | 424 kts | 226° |
| 2026-05-07 10:25 | 37.67781 | -9.93324 | 31002 ft | 422 kts | 226° |
| 2026-05-07 10:25 | 37.65538 | -9.95695 | 31358 ft | 420 kts | 226° |
| 2026-05-07 10:26 | 37.63312 | -9.98074 | 31725 ft | 416 kts | 229° |
| 2026-05-07 10:26 | 37.61344 | -10.00693 | 32068 ft | 408 kts | 237° |
| 2026-05-07 10:26 | 37.59587 | -10.03483 | 32426 ft | 405 kts | 238° |
| 2026-05-07 10:26 | 37.57833 | -10.06252 | 32770 ft | 404 kts | 237° |
| 2026-05-07 10:27 | 37.56079 | -10.09007 | 33123 ft | 402 kts | 237° |
| 2026-05-07 10:27 | 37.54329 | -10.11747 | 33478 ft | 400 kts | 237° |
| 2026-05-07 10:27 | 37.52591 | -10.14469 | 33833 ft | 398 kts | 238° |
| 2026-05-07 10:27 | 37.50862 | -10.17181 | 34136 ft | 396 kts | 238° |
| 2026-05-07 10:28 | 37.49143 | -10.19879 | 34428 ft | 395 kts | 238° |
| 2026-05-07 10:28 | 37.47425 | -10.22569 | 34688 ft | 393 kts | 237° |
| 2026-05-07 10:28 | 37.45714 | -10.25248 | 34923 ft | 392 kts | 237° |
| 2026-05-07 10:29 | 37.42296 | -10.30589 | 34997 ft | 391 kts | 237° |
| 2026-05-07 10:29 | 37.38886 | -10.35922 | 34996 ft | 391 kts | 237° |
| 2026-05-07 10:30 | 37.33767 | -10.43908 | 34999 ft | 391 kts | 237° |
| 2026-05-07 10:30 | 37.30350 | -10.49221 | 34999 ft | 391 kts | 237° |
| 2026-05-07 10:31 | 37.26928 | -10.54535 | 34996 ft | 391 kts | 237° |
| 2026-05-07 10:31 | 37.23534 | -10.59806 | 34977 ft | 390 kts | 237° |
| 2026-05-07 10:32 | 37.20119 | -10.65094 | 34989 ft | 390 kts | 236° |
| 2026-05-07 10:32 | 37.16704 | -10.70365 | 34993 ft | 389 kts | 236° |
| 2026-05-07 10:33 | 37.13288 | -10.75633 | 34994 ft | 389 kts | 236° |
| 2026-05-07 10:33 | 37.09876 | -10.80887 | 34998 ft | 389 kts | 236° |
| 2026-05-07 10:34 | 37.06454 | -10.86142 | 35000 ft | 389 kts | 236° |
| 2026-05-07 10:34 | 37.03039 | -10.91395 | 35000 ft | 389 kts | 236° |
| 2026-05-07 10:35 | 36.99622 | -10.96638 | 34997 ft | 388 kts | 236° |
| 2026-05-07 10:35 | 36.96210 | -11.01866 | 34985 ft | 388 kts | 236° |
| 2026-05-07 10:36 | 36.92796 | -11.07082 | 34997 ft | 387 kts | 236° |
| 2026-05-07 10:36 | 36.89389 | -11.12286 | 35008 ft | 387 kts | 236° |
| 2026-05-07 10:37 | 36.86003 | -11.17453 | 35016 ft | 387 kts | 236° |
| 2026-05-07 10:37 | 36.82586 | -11.22643 | 35013 ft | 387 kts | 236° |
| 2026-05-07 10:38 | 36.79176 | -11.27831 | 35015 ft | 386 kts | 236° |
| 2026-05-07 10:38 | 36.75765 | -11.33005 | 35002 ft | 386 kts | 236° |
| 2026-05-07 10:39 | 36.72349 | -11.38181 | 35003 ft | 387 kts | 236° |
| 2026-05-07 10:39 | 36.69502 | -11.42483 | 35003 ft | 387 kts | 236° |
| 2026-05-07 10:40 | 36.66074 | -11.47661 | 34988 ft | 387 kts | 236° |
| 2026-05-07 10:40 | 36.62640 | -11.52832 | 34994 ft | 388 kts | 236° |
| 2026-05-07 10:41 | 36.59204 | -11.58004 | 35001 ft | 388 kts | 236° |
| 2026-05-07 10:41 | 36.55769 | -11.63173 | 35001 ft | 388 kts | 236° |
| 2026-05-07 10:42 | 36.52327 | -11.68347 | 35000 ft | 388 kts | 236° |
| 2026-05-07 10:42 | 36.48880 | -11.73505 | 35002 ft | 388 kts | 235° |
| 2026-05-07 10:43 | 36.45448 | -11.78633 | 35007 ft | 388 kts | 235° |
| 2026-05-07 10:43 | 36.41998 | -11.83793 | 35012 ft | 389 kts | 235° |
| 2026-05-07 10:44 | 36.38547 | -11.88951 | 34982 ft | 388 kts | 235° |
| 2026-05-07 10:44 | 36.35089 | -11.94102 | 34994 ft | 388 kts | 235° |
| 2026-05-07 10:45 | 36.31630 | -11.99242 | 35002 ft | 388 kts | 235° |
| 2026-05-07 10:45 | 36.28169 | -12.04384 | 35007 ft | 388 kts | 235° |
| 2026-05-07 10:46 | 36.24706 | -12.09502 | 35021 ft | 387 kts | 235° |
| 2026-05-07 10:46 | 36.21249 | -12.14610 | 35024 ft | 387 kts | 235° |
| 2026-05-07 10:47 | 36.17803 | -12.19714 | 35030 ft | 386 kts | 235° |
| 2026-05-07 10:47 | 36.14358 | -12.24816 | 35031 ft | 386 kts | 235° |
| 2026-05-07 10:48 | 36.10901 | -12.29900 | 35002 ft | 386 kts | 235° |
| 2026-05-07 10:48 | 36.07443 | -12.34976 | 35015 ft | 386 kts | 235° |
| 2026-05-07 10:49 | 36.03989 | -12.40053 | 35009 ft | 386 kts | 235° |
| 2026-05-07 10:49 | 36.00535 | -12.45124 | 35010 ft | 385 kts | 235° |
| 2026-05-07 10:50 | 35.97085 | -12.50189 | 35019 ft | 385 kts | 235° |
| 2026-05-07 10:50 | 35.93634 | -12.55243 | 35014 ft | 385 kts | 235° |
| 2026-05-07 10:51 | 35.90183 | -12.60288 | 35017 ft | 385 kts | 234° |
| 2026-05-07 10:51 | 35.86746 | -12.65294 | 35034 ft | 385 kts | 235° |
| 2026-05-07 10:52 | 35.83291 | -12.70326 | 35028 ft | 385 kts | 235° |
| 2026-05-07 10:52 | 35.79834 | -12.75361 | 35019 ft | 385 kts | 234° |
| 2026-05-07 10:53 | 35.76368 | -12.80386 | 35024 ft | 384 kts | 234° |
| 2026-05-07 10:53 | 35.72916 | -12.85385 | 35030 ft | 384 kts | 234° |
| 2026-05-07 10:54 | 35.69455 | -12.90387 | 35033 ft | 384 kts | 234° |
| 2026-05-07 10:54 | 35.65999 | -12.95389 | 35033 ft | 384 kts | 234° |
| 2026-05-07 10:55 | 35.62537 | -13.00384 | 35033 ft | 384 kts | 234° |
| 2026-05-07 10:55 | 35.59074 | -13.05375 | 35032 ft | 383 kts | 234° |
| 2026-05-07 10:56 | 35.55605 | -13.10362 | 35034 ft | 383 kts | 234° |
| 2026-05-07 10:56 | 35.52145 | -13.15345 | 35016 ft | 383 kts | 233° |
| 2026-05-07 10:57 | 35.48699 | -13.20296 | 35046 ft | 381 kts | 233° |
| 2026-05-07 10:57 | 35.45282 | -13.25190 | 35052 ft | 379 kts | 233° |
| 2026-05-07 10:58 | 35.41848 | -13.30101 | 35053 ft | 378 kts | 233° |
| 2026-05-07 10:58 | 35.38423 | -13.34987 | 35051 ft | 378 kts | 233° |
| 2026-05-07 10:59 | 35.35003 | -13.39868 | 35049 ft | 377 kts | 233° |
| 2026-05-07 10:59 | 35.31588 | -13.44739 | 35047 ft | 377 kts | 233° |
| 2026-05-07 11:00 | 35.28174 | -13.49601 | 35055 ft | 376 kts | 233° |
| 2026-05-07 11:00 | 35.24762 | -13.54442 | 35056 ft | 375 kts | 233° |
| 2026-05-07 11:01 | 35.21355 | -13.59273 | 35055 ft | 374 kts | 233° |
| 2026-05-07 11:01 | 35.17983 | -13.64066 | 35051 ft | 374 kts | 233° |
| 2026-05-07 11:02 | 35.14585 | -13.68878 | 35050 ft | 374 kts | 233° |
| 2026-05-07 11:02 | 35.11178 | -13.73685 | 35047 ft | 374 kts | 232° |
| 2026-05-07 11:03 | 35.07773 | -13.78481 | 35045 ft | 374 kts | 232° |
| 2026-05-07 11:03 | 35.04370 | -13.83273 | 35045 ft | 373 kts | 233° |
| 2026-05-07 11:04 | 35.00968 | -13.88060 | 35056 ft | 373 kts | 232° |
| 2026-05-07 11:04 | 34.97573 | -13.92841 | 35055 ft | 372 kts | 232° |
| 2026-05-07 11:05 | 34.94176 | -13.97602 | 35054 ft | 372 kts | 232° |
| 2026-05-07 11:05 | 34.90781 | -14.02358 | 35023 ft | 372 kts | 232° |
| 2026-05-07 11:06 | 34.87384 | -14.07111 | 35028 ft | 372 kts | 232° |
| 2026-05-07 11:06 | 34.83985 | -14.11871 | 35033 ft | 372 kts | 232° |
| 2026-05-07 11:07 | 34.80579 | -14.16623 | 35035 ft | 373 kts | 232° |
| 2026-05-07 11:07 | 34.77169 | -14.21372 | 35036 ft | 373 kts | 232° |
| 2026-05-07 11:08 | 34.73783 | -14.26087 | 35055 ft | 372 kts | 232° |
| 2026-05-07 11:08 | 34.70377 | -14.30825 | 35056 ft | 372 kts | 232° |
| 2026-05-07 11:09 | 34.66975 | -14.35545 | 35053 ft | 371 kts | 232° |
| 2026-05-07 11:09 | 34.63564 | -14.40261 | 35017 ft | 371 kts | 232° |
| 2026-05-07 11:10 | 34.60160 | -14.44971 | 35024 ft | 372 kts | 232° |
| 2026-05-07 11:10 | 34.56743 | -14.49697 | 35029 ft | 372 kts | 232° |
| 2026-05-07 11:11 | 34.53323 | -14.54424 | 35035 ft | 373 kts | 232° |
| 2026-05-07 11:11 | 34.49898 | -14.59147 | 35041 ft | 373 kts | 232° |
| 2026-05-07 11:12 | 34.46469 | -14.63864 | 35042 ft | 373 kts | 231° |
| 2026-05-07 11:12 | 34.43061 | -14.68542 | 35042 ft | 373 kts | 232° |
| 2026-05-07 11:13 | 34.39634 | -14.73255 | 35042 ft | 373 kts | 231° |
| 2026-05-07 11:13 | 34.36085 | -14.77853 | 35042 ft | 374 kts | 229° |
| 2026-05-07 11:14 | 34.32464 | -14.82374 | 35026 ft | 374 kts | 229° |
| 2026-05-07 11:14 | 34.28847 | -14.86904 | 35031 ft | 374 kts | 230° |
| 2026-05-07 11:15 | 34.25241 | -14.91449 | 35035 ft | 375 kts | 230° |
| 2026-05-07 11:15 | 34.21636 | -14.95997 | 35041 ft | 375 kts | 230° |
| 2026-05-07 11:16 | 34.18027 | -15.00543 | 35043 ft | 375 kts | 229° |
| 2026-05-07 11:16 | 34.14415 | -15.05080 | 35045 ft | 375 kts | 230° |
| 2026-05-07 11:17 | 34.10807 | -15.09620 | 35049 ft | 374 kts | 229° |
| 2026-05-07 11:17 | 34.07197 | -15.14147 | 35052 ft | 374 kts | 229° |
| 2026-05-07 11:18 | 34.03587 | -15.18675 | 35032 ft | 374 kts | 230° |
| 2026-05-07 11:18 | 33.99974 | -15.23199 | 35037 ft | 375 kts | 229° |
| 2026-05-07 11:19 | 33.96354 | -15.27723 | 35041 ft | 375 kts | 229° |
| 2026-05-07 11:19 | 33.92729 | -15.32247 | 35044 ft | 375 kts | 229° |
| 2026-05-07 11:20 | 33.89099 | -15.36766 | 35045 ft | 375 kts | 229° |
| 2026-05-07 11:20 | 33.85459 | -15.41295 | 34564 ft | 380 kts | 229° |
| 2026-05-07 11:21 | 33.83635 | -15.43565 | 33806 ft | 385 kts | 229° |
| 2026-05-07 11:21 | 33.81763 | -15.45895 | 32967 ft | 391 kts | 229° |
| 2026-05-07 11:21 | 33.79858 | -15.48264 | 32123 ft | 395 kts | 229° |
| 2026-05-07 11:21 | 33.77939 | -15.50647 | 31284 ft | 399 kts | 229° |
| 2026-05-07 11:22 | 33.76001 | -15.53052 | 30419 ft | 403 kts | 228° |
| 2026-05-07 11:22 | 33.74042 | -15.55479 | 29375 ft | 406 kts | 228° |
| 2026-05-07 11:22 | 33.72095 | -15.57888 | 28924 ft | 397 kts | 229° |
| 2026-05-07 11:22 | 33.70187 | -15.60248 | 28336 ft | 391 kts | 229° |
| 2026-05-07 11:23 | 33.68511 | -15.62807 | 27756 ft | 391 kts | 242° |
| 2026-05-07 11:23 | 33.67581 | -15.65849 | 27158 ft | 387 kts | 256° |
| 2026-05-07 11:23 | 33.67030 | -15.68951 | 27015 ft | 372 kts | 257° |
| 2026-05-07 11:23 | 33.66517 | -15.71943 | 26891 ft | 358 kts | 257° |
| 2026-05-07 11:24 | 33.66028 | -15.74810 | 26770 ft | 345 kts | 257° |
| 2026-05-07 11:24 | 33.65558 | -15.77586 | 26643 ft | 334 kts | 257° |
| 2026-05-07 11:24 | 33.65103 | -15.80281 | 26442 ft | 324 kts | 257° |
| 2026-05-07 11:24 | 33.64659 | -15.82909 | 26085 ft | 320 kts | 257° |
| 2026-05-07 11:25 | 33.64216 | -15.85523 | 25674 ft | 318 kts | 257° |
| 2026-05-07 11:25 | 33.63776 | -15.88110 | 25222 ft | 315 kts | 257° |
| 2026-05-07 11:25 | 33.63338 | -15.90670 | 24588 ft | 312 kts | 257° |
| 2026-05-07 11:25 | 33.62899 | -15.93215 | 23957 ft | 310 kts | 257° |
| 2026-05-07 11:26 | 33.62464 | -15.95706 | 23302 ft | 308 kts | 257° |
| 2026-05-07 11:26 | 33.62027 | -15.98214 | 22611 ft | 307 kts | 257° |
| 2026-05-07 11:26 | 33.61588 | -16.00747 | 22175 ft | 305 kts | 257° |
| 2026-05-07 11:26 | 33.61170 | -16.03199 | 21789 ft | 302 kts | 257° |
| 2026-05-07 11:27 | 33.60752 | -16.05663 | 21381 ft | 300 kts | 257° |
| 2026-05-07 11:27 | 33.60341 | -16.08108 | 20983 ft | 298 kts | 256° |
| 2026-05-07 11:27 | 33.59696 | -16.10457 | 20428 ft | 299 kts | 241° |
| 2026-05-07 11:27 | 33.58338 | -16.12375 | 19858 ft | 307 kts | 219° |
| 2026-05-07 11:28 | 33.56510 | -16.13657 | 19669 ft | 301 kts | 212° |
| 2026-05-07 11:28 | 33.54678 | -16.14842 | 19350 ft | 297 kts | 213° |
| 2026-05-07 11:28 | 33.52868 | -16.16015 | 19000 ft | 295 kts | 213° |
| 2026-05-07 11:28 | 33.51672 | -16.16790 | 18765 ft | 294 kts | 213° |
| 2026-05-07 11:29 | 33.49880 | -16.17949 | 18422 ft | 292 kts | 212° |
| 2026-05-07 11:29 | 33.48098 | -16.19096 | 18031 ft | 290 kts | 212° |
| 2026-05-07 11:29 | 33.46320 | -16.20239 | 17626 ft | 289 kts | 212° |
| 2026-05-07 11:29 | 33.44556 | -16.21375 | 17233 ft | 288 kts | 212° |
| 2026-05-07 11:30 | 33.42201 | -16.22888 | 16714 ft | 286 kts | 212° |
| 2026-05-07 11:30 | 33.41040 | -16.23633 | 16469 ft | 285 kts | 212° |
| 2026-05-07 11:30 | 33.39293 | -16.24752 | 16085 ft | 284 kts | 212° |
| 2026-05-07 11:30 | 33.37553 | -16.25867 | 15709 ft | 284 kts | 212° |
| 2026-05-07 11:31 | 33.35814 | -16.26984 | 15349 ft | 283 kts | 212° |
| 2026-05-07 11:31 | 33.34083 | -16.28097 | 14998 ft | 282 kts | 212° |
| 2026-05-07 11:31 | 33.32355 | -16.29206 | 14647 ft | 282 kts | 212° |
| 2026-05-07 11:31 | 33.30629 | -16.30314 | 14308 ft | 281 kts | 211° |
| 2026-05-07 11:32 | 33.27213 | -16.32505 | 13269 ft | 280 kts | 211° |
| 2026-05-07 11:32 | 33.25501 | -16.33604 | 12872 ft | 279 kts | 211° |
| 2026-05-07 11:32 | 33.23792 | -16.34701 | 12472 ft | 279 kts | 211° |
| 2026-05-07 11:33 | 33.22080 | -16.35799 | 12092 ft | 279 kts | 211° |
| 2026-05-07 11:33 | 33.20371 | -16.36890 | 11710 ft | 278 kts | 211° |
| 2026-05-07 11:33 | 33.18664 | -16.37979 | 11317 ft | 278 kts | 211° |
| 2026-05-07 11:33 | 33.16953 | -16.39070 | 10925 ft | 279 kts | 211° |
| 2026-05-07 11:34 | 33.15260 | -16.40149 | 10641 ft | 279 kts | 211° |
| 2026-05-07 11:34 | 33.13541 | -16.41245 | 10494 ft | 281 kts | 211° |
| 2026-05-07 11:34 | 33.11814 | -16.42347 | 10366 ft | 281 kts | 211° |
| 2026-05-07 11:34 | 33.10087 | -16.43448 | 10250 ft | 282 kts | 211° |
| 2026-05-07 11:35 | 33.08354 | -16.44553 | 10111 ft | 283 kts | 211° |
| 2026-05-07 11:35 | 33.06620 | -16.45659 | 10000 ft | 283 kts | 211° |
| 2026-05-07 11:35 | 33.04866 | -16.46776 | 9489 ft | 288 kts | 211° |
| 2026-05-07 11:35 | 33.03113 | -16.47890 | 9156 ft | 283 kts | 211° |
| 2026-05-07 11:36 | 33.01382 | -16.48989 | 8749 ft | 282 kts | 211° |
| 2026-05-07 11:36 | 32.99661 | -16.50081 | 8453 ft | 274 kts | 211° |
| 2026-05-07 11:36 | 32.98036 | -16.51109 | 8210 ft | 257 kts | 211° |
| 2026-05-07 11:36 | 32.96479 | -16.52096 | 7729 ft | 251 kts | 211° |
| 2026-05-07 11:37 | 32.94946 | -16.53069 | 7190 ft | 249 kts | 211° |
| 2026-05-07 11:37 | 32.93421 | -16.54038 | 6686 ft | 249 kts | 211° |
| 2026-05-07 11:37 | 32.91903 | -16.55003 | 6357 ft | 246 kts | 211° |
| 2026-05-07 11:37 | 32.90393 | -16.55962 | 5989 ft | 245 kts | 211° |
| 2026-05-07 11:38 | 32.88892 | -16.56914 | 5615 ft | 244 kts | 211° |
| 2026-05-07 11:38 | 32.87414 | -16.57850 | 5273 ft | 243 kts | 211° |
| 2026-05-07 11:38 | 32.85929 | -16.58790 | 5109 ft | 243 kts | 211° |
| 2026-05-07 11:38 | 32.84497 | -16.59863 | 4796 ft | 247 kts | 217° |
| 2026-05-07 11:39 | 32.83078 | -16.61038 | 4332 ft | 248 kts | 217° |
| 2026-05-07 11:39 | 32.81632 | -16.62240 | 3655 ft | 259 kts | 216° |
| 2026-05-07 11:39 | 32.80177 | -16.63449 | 3288 ft | 247 kts | 216° |
| 2026-05-07 11:39 | 32.78825 | -16.64568 | 3138 ft | 227 kts | 216° |
| 2026-05-07 11:40 | 32.77564 | -16.65614 | 3042 ft | 215 kts | 217° |
| 2026-05-07 11:40 | 32.76371 | -16.66604 | 3002 ft | 204 kts | 217° |
| 2026-05-07 11:40 | 32.75219 | -16.67557 | 2981 ft | 200 kts | 217° |
| 2026-05-07 11:40 | 32.74117 | -16.68438 | 3002 ft | 181 kts | 216° |
| 2026-05-07 11:41 | 32.73094 | -16.69205 | 2932 ft | 170 kts | 214° |
| 2026-05-07 11:41 | 32.72092 | -16.69911 | 2720 ft | 166 kts | 211° |
| 2026-05-07 11:41 | 32.71095 | -16.70596 | 2457 ft | 166 kts | 212° |
| 2026-05-07 11:41 | 32.70104 | -16.71310 | 2153 ft | 166 kts | 213° |
| 2026-05-07 11:42 | 32.69163 | -16.72070 | 1929 ft | 159 kts | 217° |
| 2026-05-07 11:42 | 32.68329 | -16.72832 | 1811 ft | 147 kts | 218° |
| 2026-05-07 11:42 | 32.67547 | -16.73569 | 1664 ft | 141 kts | 219° |
| 2026-05-07 11:42 | 32.66793 | -16.74285 | 1506 ft | 140 kts | 219° |
| 2026-05-07 11:43 | 32.66031 | -16.75004 | 1387 ft | 139 kts | 218° |
| 2026-05-07 11:43 | 32.65270 | -16.75721 | 1322 ft | 140 kts | 218° |
| 2026-05-07 11:43 | 32.64504 | -16.76440 | 1259 ft | 141 kts | 222° |
| 2026-05-07 11:43 | 32.63981 | -16.77403 | 1210 ft | 141 kts | 257° |
| 2026-05-07 11:44 | 32.64092 | -16.78540 | 1163 ft | 143 kts | 295° |
| 2026-05-07 11:44 | 32.64693 | -16.79474 | 1084 ft | 144 kts | 316° |
| 2026-05-07 11:44 | 32.65521 | -16.80127 | 948 ft | 142 kts | 336° |
| 2026-05-07 11:44 | 32.66472 | -16.80410 | 799 ft | 141 kts | 359° |
| 2026-05-07 11:45 | 32.67415 | -16.80173 | 676 ft | 140 kts | 26° |
| 2026-05-07 11:45 | 32.68149 | -16.79436 | 452 ft | 138 kts | 47° |
| 2026-05-07 11:45 | 32.68811 | -16.78614 | 275 ft | 139 kts | 45° |
| 2026-05-07 11:45 | 32.69451 | -16.77829 | 177 ft | 119 kts | 42° |
| 2026-05-07 11:46 | 32.69863 | -16.77362 | 189 ft | 49 kts | 45° |
| 2026-05-07 11:46 | 32.69963 | -16.77224 | 195 ft | 13 kts | 83° |
| 2026-05-07 11:46 | 32.69896 | -16.77176 | 186 ft | 12 kts | 176° |
| 2026-05-07 11:46 | 32.69810 | -16.77214 | 182 ft | 14 kts | 224° |
| 2026-05-07 11:47 | 32.69729 | -16.77311 | 173 ft | 19 kts | 226° |
| 2026-05-07 11:47 | 32.69628 | -16.77436 | 169 ft | 22 kts | 226° |
| 2026-05-07 11:47 | 32.69538 | -16.77549 | 169 ft | 17 kts | 226° |
| 2026-05-07 11:47 | 32.69465 | -16.77639 | 169 ft | 12 kts | 226° |
| 2026-05-07 11:48 | 32.69415 | -16.77699 | 169 ft | 7 kts | 216° |
| 2026-05-07 11:48 | 32.69382 | -16.77686 | 169 ft | 5 kts | 143° |
| 2026-05-07 11:48 | 32.69363 | -16.77666 | 169 ft | 1 kts | 138° |
| 2026-05-07 11:48 | 32.69360 | -16.77663 | 169 ft | 0 kts | 139° |
| 2026-05-07 11:49 | 32.69359 | -16.77662 | 169 ft | 1 kts | 139° |
| 2026-05-07 11:49 | 32.69358 | -16.77661 | 169 ft | 0 kts | 139° |